sensor_id;sensor_type;location;lat;lon;timestamp;P1;durP1;ratioP1;P2;durP2;ratioP2
75073;SDS011;63652;51.526;5.080;2023-04-24T00:00:08;12.07;;;6.13;;
75073;SDS011;63652;51.526;5.080;2023-04-24T00:02:34;10.30;;;5.93;;
75073;SDS011;63652;51.526;5.080;2023-04-24T00:05:03;11.48;;;6.10;;
75073;SDS011;63652;51.526;5.080;2023-04-24T00:07:32;12.70;;;5.07;;
75073;SDS011;63652;51.526;5.080;2023-04-24T00:09:58;11.10;;;5.40;;
75073;SDS011;63652;51.526;5.080;2023-04-24T00:12:24;12.30;;;5.78;;
75073;SDS011;63652;51.526;5.080;2023-04-24T00:14:50;10.30;;;6.63;;
75073;SDS011;63652;51.526;5.080;2023-04-24T00:17:15;10.35;;;6.00;;
75073;SDS011;63652;51.526;5.080;2023-04-24T00:19:41;12.55;;;7.18;;
75073;SDS011;63652;51.526;5.080;2023-04-24T00:22:06;10.80;;;6.90;;
75073;SDS011;63652;51.526;5.080;2023-04-24T00:24:31;15.00;;;8.95;;
75073;SDS011;63652;51.526;5.080;2023-04-24T00:26:57;13.30;;;6.50;;
75073;SDS011;63652;51.526;5.080;2023-04-24T00:29:22;16.80;;;7.18;;
75073;SDS011;63652;51.526;5.080;2023-04-24T00:31:48;15.65;;;8.55;;
75073;SDS011;63652;51.526;5.080;2023-04-24T00:34:13;13.98;;;7.88;;
75073;SDS011;63652;51.526;5.080;2023-04-24T00:36:38;11.38;;;4.28;;
75073;SDS011;63652;51.526;5.080;2023-04-24T00:39:04;14.27;;;7.90;;
75073;SDS011;63652;51.526;5.080;2023-04-24T00:41:30;17.02;;;8.55;;
75073;SDS011;63652;51.526;5.080;2023-04-24T00:43:56;18.80;;;8.40;;
75073;SDS011;63652;51.526;5.080;2023-04-24T00:46:21;16.33;;;9.00;;
75073;SDS011;63652;51.526;5.080;2023-04-24T00:48:46;16.48;;;9.20;;
75073;SDS011;63652;51.526;5.080;2023-04-24T00:51:12;18.50;;;10.10;;
75073;SDS011;63652;51.526;5.080;2023-04-24T00:53:37;21.60;;;8.88;;
75073;SDS011;63652;51.526;5.080;2023-04-24T00:56:03;16.63;;;9.27;;
75073;SDS011;63652;51.526;5.080;2023-04-24T00:58:29;17.45;;;9.57;;
75073;SDS011;63652;51.526;5.080;2023-04-24T01:00:56;18.60;;;8.60;;
75073;SDS011;63652;51.526;5.080;2023-04-24T01:03:22;15.50;;;9.45;;
75073;SDS011;63652;51.526;5.080;2023-04-24T01:05:51;15.88;;;9.10;;
75073;SDS011;63652;51.526;5.080;2023-04-24T01:08:17;18.20;;;8.80;;
75073;SDS011;63652;51.526;5.080;2023-04-24T01:10:42;21.15;;;10.15;;
75073;SDS011;63652;51.526;5.080;2023-04-24T01:13:09;17.08;;;9.88;;
75073;SDS011;63652;51.526;5.080;2023-04-24T01:15:34;18.20;;;10.02;;
75073;SDS011;63652;51.526;5.080;2023-04-24T01:18:00;20.30;;;9.30;;
75073;SDS011;63652;51.526;5.080;2023-04-24T01:20:25;16.63;;;9.10;;
75073;SDS011;63652;51.526;5.080;2023-04-24T01:22:51;19.88;;;10.60;;
75073;SDS011;63652;51.526;5.080;2023-04-24T01:25:17;20.38;;;11.15;;
75073;SDS011;63652;51.526;5.080;2023-04-24T01:27:43;20.50;;;10.13;;
75073;SDS011;63652;51.526;5.080;2023-04-24T01:30:08;20.05;;;10.13;;
75073;SDS011;63652;51.526;5.080;2023-04-24T01:32:35;15.68;;;9.48;;
75073;SDS011;63652;51.526;5.080;2023-04-24T01:35:01;24.92;;;11.00;;
75073;SDS011;63652;51.526;5.080;2023-04-24T01:37:27;25.58;;;12.00;;
75073;SDS011;63652;51.526;5.080;2023-04-24T01:39:53;19.73;;;10.75;;
75073;SDS011;63652;51.526;5.080;2023-04-24T01:42:18;18.40;;;10.02;;
75073;SDS011;63652;51.526;5.080;2023-04-24T01:44:44;21.73;;;10.65;;
75073;SDS011;63652;51.526;5.080;2023-04-24T01:47:09;17.95;;;8.90;;
75073;SDS011;63652;51.526;5.080;2023-04-24T01:49:36;23.98;;;11.63;;
75073;SDS011;63652;51.526;5.080;2023-04-24T01:52:03;18.13;;;10.43;;
75073;SDS011;63652;51.526;5.080;2023-04-24T01:54:28;20.00;;;10.68;;
75073;SDS011;63652;51.526;5.080;2023-04-24T01:56:53;15.07;;;9.05;;
75073;SDS011;63652;51.526;5.080;2023-04-24T01:59:19;15.85;;;7.25;;
75073;SDS011;63652;51.526;5.080;2023-04-24T02:01:45;16.52;;;8.02;;
75073;SDS011;63652;51.526;5.080;2023-04-24T02:04:11;18.23;;;10.23;;
75073;SDS011;63652;51.526;5.080;2023-04-24T02:06:36;17.60;;;8.18;;
75073;SDS011;63652;51.526;5.080;2023-04-24T02:09:02;12.65;;;8.23;;
75073;SDS011;63652;51.526;5.080;2023-04-24T02:11:28;12.95;;;8.13;;
75073;SDS011;63652;51.526;5.080;2023-04-24T02:13:53;15.32;;;8.18;;
75073;SDS011;63652;51.526;5.080;2023-04-24T02:16:19;15.70;;;7.40;;
75073;SDS011;63652;51.526;5.080;2023-04-24T02:18:44;16.17;;;8.55;;
75073;SDS011;63652;51.526;5.080;2023-04-24T02:21:10;15.27;;;8.15;;
75073;SDS011;63652;51.526;5.080;2023-04-24T02:23:35;15.48;;;7.47;;
75073;SDS011;63652;51.526;5.080;2023-04-24T02:26:01;16.67;;;8.00;;
75073;SDS011;63652;51.526;5.080;2023-04-24T02:28:27;11.43;;;7.25;;
75073;SDS011;63652;51.526;5.080;2023-04-24T02:30:52;10.10;;;6.32;;
75073;SDS011;63652;51.526;5.080;2023-04-24T02:33:18;11.68;;;6.38;;
75073;SDS011;63652;51.526;5.080;2023-04-24T02:35:43;15.57;;;7.70;;
75073;SDS011;63652;51.526;5.080;2023-04-24T02:38:08;8.02;;;5.03;;
75073;SDS011;63652;51.526;5.080;2023-04-24T02:40:34;10.88;;;7.35;;
75073;SDS011;63652;51.526;5.080;2023-04-24T02:42:59;17.27;;;8.85;;
75073;SDS011;63652;51.526;5.080;2023-04-24T02:45:24;17.00;;;9.20;;
75073;SDS011;63652;51.526;5.080;2023-04-24T02:47:50;12.90;;;7.82;;
75073;SDS011;63652;51.526;5.080;2023-04-24T02:50:15;12.75;;;7.93;;
75073;SDS011;63652;51.526;5.080;2023-04-24T02:52:41;14.50;;;9.07;;
75073;SDS011;63652;51.526;5.080;2023-04-24T02:55:06;17.65;;;8.50;;
75073;SDS011;63652;51.526;5.080;2023-04-24T02:57:33;17.10;;;9.20;;
75073;SDS011;63652;51.526;5.080;2023-04-24T02:59:58;13.70;;;8.45;;
75073;SDS011;63652;51.526;5.080;2023-04-24T03:02:24;14.55;;;7.20;;
75073;SDS011;63652;51.526;5.080;2023-04-24T03:04:49;11.68;;;7.18;;
75073;SDS011;63652;51.526;5.080;2023-04-24T03:07:14;13.13;;;7.50;;
75073;SDS011;63652;51.526;5.080;2023-04-24T03:09:40;14.75;;;8.50;;
75073;SDS011;63652;51.526;5.080;2023-04-24T03:12:05;18.08;;;9.48;;
75073;SDS011;63652;51.526;5.080;2023-04-24T03:14:31;19.08;;;9.23;;
75073;SDS011;63652;51.526;5.080;2023-04-24T03:16:56;15.10;;;7.50;;
75073;SDS011;63652;51.526;5.080;2023-04-24T03:19:22;11.63;;;6.95;;
75073;SDS011;63652;51.526;5.080;2023-04-24T03:21:47;14.82;;;7.93;;
75073;SDS011;63652;51.526;5.080;2023-04-24T03:24:13;13.57;;;8.85;;
75073;SDS011;63652;51.526;5.080;2023-04-24T03:26:38;12.82;;;7.82;;
75073;SDS011;63652;51.526;5.080;2023-04-24T03:29:04;15.65;;;7.18;;
75073;SDS011;63652;51.526;5.080;2023-04-24T03:31:29;14.07;;;8.48;;
75073;SDS011;63652;51.526;5.080;2023-04-24T03:33:55;13.00;;;6.97;;
75073;SDS011;63652;51.526;5.080;2023-04-24T03:36:20;11.55;;;6.75;;
75073;SDS011;63652;51.526;5.080;2023-04-24T03:38:46;15.95;;;7.22;;
75073;SDS011;63652;51.526;5.080;2023-04-24T03:41:11;11.68;;;6.88;;
75073;SDS011;63652;51.526;5.080;2023-04-24T03:43:36;12.30;;;6.55;;
75073;SDS011;63652;51.526;5.080;2023-04-24T03:46:02;13.25;;;7.10;;
75073;SDS011;63652;51.526;5.080;2023-04-24T03:48:27;7.60;;;4.40;;
75073;SDS011;63652;51.526;5.080;2023-04-24T03:50:53;11.35;;;5.95;;
75073;SDS011;63652;51.526;5.080;2023-04-24T03:53:18;11.18;;;5.72;;
75073;SDS011;63652;51.526;5.080;2023-04-24T03:55:44;18.23;;;8.30;;
75073;SDS011;63652;51.526;5.080;2023-04-24T03:58:10;13.55;;;6.30;;
75073;SDS011;63652;51.526;5.080;2023-04-24T04:00:36;12.88;;;7.00;;
75073;SDS011;63652;51.526;5.080;2023-04-24T04:03:02;14.35;;;7.55;;
75073;SDS011;63652;51.526;5.080;2023-04-24T04:05:28;12.93;;;5.65;;
75073;SDS011;63652;51.526;5.080;2023-04-24T04:07:54;9.52;;;5.60;;
75073;SDS011;63652;51.526;5.080;2023-04-24T04:10:19;9.73;;;5.80;;
75073;SDS011;63652;51.526;5.080;2023-04-24T04:12:45;17.55;;;8.10;;
75073;SDS011;63652;51.526;5.080;2023-04-24T04:15:10;9.80;;;6.10;;
75073;SDS011;63652;51.526;5.080;2023-04-24T04:17:35;12.45;;;6.43;;
75073;SDS011;63652;51.526;5.080;2023-04-24T04:20:03;11.32;;;6.57;;
75073;SDS011;63652;51.526;5.080;2023-04-24T04:22:32;13.63;;;7.50;;
75073;SDS011;63652;51.526;5.080;2023-04-24T04:24:57;11.45;;;6.43;;
75073;SDS011;63652;51.526;5.080;2023-04-24T04:27:22;13.27;;;5.97;;
75073;SDS011;63652;51.526;5.080;2023-04-24T04:29:48;12.98;;;6.50;;
75073;SDS011;63652;51.526;5.080;2023-04-24T04:32:13;12.27;;;6.63;;
75073;SDS011;63652;51.526;5.080;2023-04-24T04:34:39;9.25;;;5.47;;
75073;SDS011;63652;51.526;5.080;2023-04-24T04:37:05;7.57;;;5.00;;
75073;SDS011;63652;51.526;5.080;2023-04-24T04:39:30;12.27;;;5.32;;
75073;SDS011;63652;51.526;5.080;2023-04-24T04:41:56;9.18;;;5.20;;
75073;SDS011;63652;51.526;5.080;2023-04-24T04:44:21;8.60;;;4.05;;
75073;SDS011;63652;51.526;5.080;2023-04-24T04:46:48;6.55;;;3.05;;
75073;SDS011;63652;51.526;5.080;2023-04-24T04:49:14;6.90;;;3.42;;
75073;SDS011;63652;51.526;5.080;2023-04-24T04:51:41;7.28;;;2.63;;
75073;SDS011;63652;51.526;5.080;2023-04-24T04:54:07;3.53;;;2.00;;
75073;SDS011;63652;51.526;5.080;2023-04-24T04:56:32;2.30;;;1.27;;
75073;SDS011;63652;51.526;5.080;2023-04-24T04:58:58;3.95;;;0.50;;
75073;SDS011;63652;51.526;5.080;2023-04-24T05:01:24;1.13;;;0.63;;
75073;SDS011;63652;51.526;5.080;2023-04-24T05:03:50;1.23;;;0.57;;
75073;SDS011;63652;51.526;5.080;2023-04-24T05:06:16;1.17;;;0.63;;
75073;SDS011;63652;51.526;5.080;2023-04-24T05:08:41;0.90;;;0.50;;
75073;SDS011;63652;51.526;5.080;2023-04-24T05:11:07;1.63;;;0.68;;
75073;SDS011;63652;51.526;5.080;2023-04-24T05:13:32;1.02;;;0.65;;
75073;SDS011;63652;51.526;5.080;2023-04-24T05:15:58;1.25;;;0.70;;
75073;SDS011;63652;51.526;5.080;2023-04-24T05:18:23;3.80;;;1.70;;
75073;SDS011;63652;51.526;5.080;2023-04-24T05:20:49;1.38;;;0.88;;
75073;SDS011;63652;51.526;5.080;2023-04-24T05:23:14;2.10;;;1.23;;
75073;SDS011;63652;51.526;5.080;2023-04-24T05:25:40;1.58;;;1.00;;
75073;SDS011;63652;51.526;5.080;2023-04-24T05:28:06;3.03;;;1.77;;
75073;SDS011;63652;51.526;5.080;2023-04-24T05:30:34;2.80;;;1.55;;
75073;SDS011;63652;51.526;5.080;2023-04-24T05:33:00;2.15;;;1.08;;
75073;SDS011;63652;51.526;5.080;2023-04-24T05:35:26;3.08;;;1.27;;
75073;SDS011;63652;51.526;5.080;2023-04-24T05:37:51;4.13;;;2.13;;
75073;SDS011;63652;51.526;5.080;2023-04-24T05:40:17;2.42;;;1.48;;
75073;SDS011;63652;51.526;5.080;2023-04-24T05:42:45;3.83;;;2.13;;
75073;SDS011;63652;51.526;5.080;2023-04-24T05:45:10;2.60;;;1.17;;
75073;SDS011;63652;51.526;5.080;2023-04-24T05:47:41;3.13;;;1.52;;
75073;SDS011;63652;51.526;5.080;2023-04-24T05:50:06;3.08;;;1.75;;
75073;SDS011;63652;51.526;5.080;2023-04-24T05:52:32;3.17;;;1.60;;
75073;SDS011;63652;51.526;5.080;2023-04-24T05:54:58;2.47;;;1.35;;
75073;SDS011;63652;51.526;5.080;2023-04-24T05:57:23;3.67;;;2.20;;
75073;SDS011;63652;51.526;5.080;2023-04-24T05:59:48;7.10;;;2.95;;
75073;SDS011;63652;51.526;5.080;2023-04-24T06:02:14;3.55;;;1.80;;
75073;SDS011;63652;51.526;5.080;2023-04-24T06:04:39;5.53;;;2.75;;
75073;SDS011;63652;51.526;5.080;2023-04-24T06:07:05;4.65;;;2.38;;
75073;SDS011;63652;51.526;5.080;2023-04-24T06:09:31;5.18;;;3.22;;
75073;SDS011;63652;51.526;5.080;2023-04-24T06:11:56;7.35;;;3.45;;
75073;SDS011;63652;51.526;5.080;2023-04-24T06:14:23;10.40;;;3.90;;
75073;SDS011;63652;51.526;5.080;2023-04-24T06:16:48;7.85;;;3.55;;
75073;SDS011;63652;51.526;5.080;2023-04-24T06:19:14;8.10;;;3.83;;
75073;SDS011;63652;51.526;5.080;2023-04-24T06:21:39;5.55;;;2.78;;
75073;SDS011;63652;51.526;5.080;2023-04-24T06:24:04;6.45;;;3.67;;
75073;SDS011;63652;51.526;5.080;2023-04-24T06:26:30;4.18;;;2.40;;
75073;SDS011;63652;51.526;5.080;2023-04-24T06:28:55;7.75;;;3.22;;
75073;SDS011;63652;51.526;5.080;2023-04-24T06:31:21;7.43;;;3.67;;
75073;SDS011;63652;51.526;5.080;2023-04-24T06:33:47;7.53;;;4.57;;
75073;SDS011;63652;51.526;5.080;2023-04-24T06:36:13;6.80;;;4.30;;
75073;SDS011;63652;51.526;5.080;2023-04-24T06:38:38;7.32;;;3.97;;
75073;SDS011;63652;51.526;5.080;2023-04-24T06:41:04;7.22;;;3.80;;
75073;SDS011;63652;51.526;5.080;2023-04-24T06:43:30;14.75;;;4.72;;
75073;SDS011;63652;51.526;5.080;2023-04-24T06:45:57;10.82;;;4.10;;
75073;SDS011;63652;51.526;5.080;2023-04-24T06:48:23;8.57;;;3.60;;
75073;SDS011;63652;51.526;5.080;2023-04-24T06:50:49;7.63;;;4.07;;
75073;SDS011;63652;51.526;5.080;2023-04-24T06:53:14;6.30;;;3.50;;
75073;SDS011;63652;51.526;5.080;2023-04-24T06:55:40;8.27;;;4.40;;
75073;SDS011;63652;51.526;5.080;2023-04-24T06:58:05;7.05;;;4.38;;
75073;SDS011;63652;51.526;5.080;2023-04-24T07:00:31;6.63;;;3.63;;
75073;SDS011;63652;51.526;5.080;2023-04-24T07:02:56;6.05;;;3.85;;
75073;SDS011;63652;51.526;5.080;2023-04-24T07:05:22;5.63;;;3.15;;
75073;SDS011;63652;51.526;5.080;2023-04-24T07:07:48;8.50;;;3.33;;
75073;SDS011;63652;51.526;5.080;2023-04-24T07:10:14;3.55;;;2.47;;
75073;SDS011;63652;51.526;5.080;2023-04-24T07:12:40;3.33;;;2.28;;
75073;SDS011;63652;51.526;5.080;2023-04-24T07:15:06;3.17;;;1.77;;
75073;SDS011;63652;51.526;5.080;2023-04-24T07:17:32;4.70;;;2.35;;
75073;SDS011;63652;51.526;5.080;2023-04-24T07:19:59;4.05;;;1.50;;
75073;SDS011;63652;51.526;5.080;2023-04-24T07:22:25;5.95;;;2.60;;
75073;SDS011;63652;51.526;5.080;2023-04-24T07:24:50;7.68;;;2.42;;
75073;SDS011;63652;51.526;5.080;2023-04-24T07:27:16;5.70;;;2.67;;
75073;SDS011;63652;51.526;5.080;2023-04-24T07:29:41;4.88;;;2.40;;
75073;SDS011;63652;51.526;5.080;2023-04-24T07:32:07;3.53;;;2.00;;
75073;SDS011;63652;51.526;5.080;2023-04-24T07:34:32;6.97;;;2.42;;
75073;SDS011;63652;51.526;5.080;2023-04-24T07:36:58;8.13;;;2.80;;
75073;SDS011;63652;51.526;5.080;2023-04-24T07:39:23;6.85;;;3.47;;
75073;SDS011;63652;51.526;5.080;2023-04-24T07:41:49;4.32;;;2.42;;
75073;SDS011;63652;51.526;5.080;2023-04-24T07:44:14;8.95;;;2.83;;
75073;SDS011;63652;51.526;5.080;2023-04-24T07:46:40;9.15;;;3.78;;
75073;SDS011;63652;51.526;5.080;2023-04-24T07:49:05;20.30;;;3.10;;
75073;SDS011;63652;51.526;5.080;2023-04-24T07:51:31;6.53;;;2.67;;
75073;SDS011;63652;51.526;5.080;2023-04-24T07:53:58;9.65;;;2.65;;
75073;SDS011;63652;51.526;5.080;2023-04-24T07:56:24;8.18;;;3.55;;
75073;SDS011;63652;51.526;5.080;2023-04-24T07:58:50;5.50;;;2.75;;
75073;SDS011;63652;51.526;5.080;2023-04-24T08:01:15;3.75;;;2.45;;
75073;SDS011;63652;51.526;5.080;2023-04-24T08:03:40;4.45;;;2.28;;
75073;SDS011;63652;51.526;5.080;2023-04-24T08:06:06;3.28;;;2.50;;
75073;SDS011;63652;51.526;5.080;2023-04-24T08:08:31;6.93;;;1.70;;
75073;SDS011;63652;51.526;5.080;2023-04-24T08:10:57;4.53;;;2.15;;
75073;SDS011;63652;51.526;5.080;2023-04-24T08:13:23;3.13;;;1.40;;
75073;SDS011;63652;51.526;5.080;2023-04-24T08:15:48;3.15;;;1.42;;
75073;SDS011;63652;51.526;5.080;2023-04-24T08:18:14;6.45;;;2.17;;
75073;SDS011;63652;51.526;5.080;2023-04-24T08:20:40;7.45;;;1.95;;
75073;SDS011;63652;51.526;5.080;2023-04-24T08:23:06;2.05;;;1.40;;
75073;SDS011;63652;51.526;5.080;2023-04-24T08:25:32;10.02;;;1.50;;
75073;SDS011;63652;51.526;5.080;2023-04-24T08:27:57;4.03;;;1.30;;
75073;SDS011;63652;51.526;5.080;2023-04-24T08:30:22;3.47;;;1.38;;
75073;SDS011;63652;51.526;5.080;2023-04-24T08:32:48;5.53;;;1.42;;
75073;SDS011;63652;51.526;5.080;2023-04-24T08:35:13;3.17;;;0.90;;
75073;SDS011;63652;51.526;5.080;2023-04-24T08:37:39;8.45;;;1.60;;
75073;SDS011;63652;51.526;5.080;2023-04-24T08:40:14;7.50;;;1.75;;
75073;SDS011;63652;51.526;5.080;2023-04-24T08:42:44;2.05;;;0.93;;
75073;SDS011;63652;51.526;5.080;2023-04-24T08:45:10;1.35;;;0.77;;
75073;SDS011;63652;51.526;5.080;2023-04-24T08:47:40;2.88;;;1.23;;
75073;SDS011;63652;51.526;5.080;2023-04-24T08:50:06;9.80;;;1.23;;
75073;SDS011;63652;51.526;5.080;2023-04-24T08:52:33;1.77;;;1.13;;
75073;SDS011;63652;51.526;5.080;2023-04-24T08:55:02;2.15;;;1.10;;
75073;SDS011;63652;51.526;5.080;2023-04-24T08:57:28;1.65;;;1.25;;
75073;SDS011;63652;51.526;5.080;2023-04-24T08:59:54;3.72;;;0.98;;
75073;SDS011;63652;51.526;5.080;2023-04-24T09:02:20;2.10;;;1.05;;
75073;SDS011;63652;51.526;5.080;2023-04-24T09:04:46;7.25;;;1.05;;
75073;SDS011;63652;51.526;5.080;2023-04-24T09:07:12;4.25;;;1.83;;
75073;SDS011;63652;51.526;5.080;2023-04-24T09:09:37;5.90;;;1.15;;
75073;SDS011;63652;51.526;5.080;2023-04-24T09:12:04;7.75;;;1.38;;
75073;SDS011;63652;51.526;5.080;2023-04-24T09:14:30;3.53;;;1.65;;
75073;SDS011;63652;51.526;5.080;2023-04-24T09:16:57;5.25;;;1.67;;
75073;SDS011;63652;51.526;5.080;2023-04-24T09:19:22;3.80;;;0.98;;
75073;SDS011;63652;51.526;5.080;2023-04-24T09:21:47;3.05;;;1.10;;
75073;SDS011;63652;51.526;5.080;2023-04-24T09:24:20;4.10;;;0.45;;
75073;SDS011;63652;51.526;5.080;2023-04-24T09:26:47;0.98;;;0.50;;
75073;SDS011;63652;51.526;5.080;2023-04-24T09:29:14;0.38;;;0.15;;
75073;SDS011;63652;51.526;5.080;2023-04-24T09:31:40;0.82;;;0.50;;
75073;SDS011;63652;51.526;5.080;2023-04-24T09:34:06;1.17;;;0.70;;
75073;SDS011;63652;51.526;5.080;2023-04-24T09:36:32;1.92;;;0.88;;
75073;SDS011;63652;51.526;5.080;2023-04-24T09:38:59;1.20;;;0.68;;
75073;SDS011;63652;51.526;5.080;2023-04-24T09:41:26;3.95;;;1.00;;
75073;SDS011;63652;51.526;5.080;2023-04-24T09:43:56;2.55;;;0.75;;
75073;SDS011;63652;51.526;5.080;2023-04-24T09:46:29;1.60;;;0.40;;
75073;SDS011;63652;51.526;5.080;2023-04-24T09:48:55;2.35;;;0.70;;
75073;SDS011;63652;51.526;5.080;2023-04-24T09:51:32;0.52;;;0.30;;
75073;SDS011;63652;51.526;5.080;2023-04-24T09:53:59;1.00;;;0.55;;
75073;SDS011;63652;51.526;5.080;2023-04-24T09:56:25;2.97;;;0.82;;
75073;SDS011;63652;51.526;5.080;2023-04-24T09:58:51;2.45;;;0.60;;
75073;SDS011;63652;51.526;5.080;2023-04-24T10:01:16;0.63;;;0.32;;
75073;SDS011;63652;51.526;5.080;2023-04-24T10:03:55;0.47;;;0.30;;
75073;SDS011;63652;51.526;5.080;2023-04-24T10:06:20;1.90;;;0.73;;
75073;SDS011;63652;51.526;5.080;2023-04-24T10:08:45;5.63;;;1.30;;
75073;SDS011;63652;51.526;5.080;2023-04-24T10:11:11;1.15;;;0.40;;
75073;SDS011;63652;51.526;5.080;2023-04-24T10:13:36;1.27;;;0.10;;
75073;SDS011;63652;51.526;5.080;2023-04-24T10:16:02;3.60;;;0.20;;
75073;SDS011;63652;51.526;5.080;2023-04-24T10:18:28;0.20;;;0.20;;
75073;SDS011;63652;51.526;5.080;2023-04-24T10:20:54;4.13;;;0.50;;
75073;SDS011;63652;51.526;5.080;2023-04-24T10:23:21;2.08;;;0.40;;
75073;SDS011;63652;51.526;5.080;2023-04-24T10:25:46;3.65;;;0.73;;
75073;SDS011;63652;51.526;5.080;2023-04-24T10:28:14;0.93;;;0.45;;
75073;SDS011;63652;51.526;5.080;2023-04-24T10:30:40;2.75;;;0.60;;
75073;SDS011;63652;51.526;5.080;2023-04-24T10:33:08;2.63;;;0.68;;
75073;SDS011;63652;51.526;5.080;2023-04-24T10:35:42;1.15;;;0.60;;
75073;SDS011;63652;51.526;5.080;2023-04-24T10:38:11;0.45;;;0.20;;
75073;SDS011;63652;51.526;5.080;2023-04-24T10:40:37;0.43;;;0.25;;
75073;SDS011;63652;51.526;5.080;2023-04-24T10:43:03;1.10;;;0.63;;
75073;SDS011;63652;51.526;5.080;2023-04-24T10:45:31;0.38;;;0.20;;
75073;SDS011;63652;51.526;5.080;2023-04-24T10:47:58;1.15;;;0.20;;
75073;SDS011;63652;51.526;5.080;2023-04-24T10:50:26;0.50;;;0.50;;
75073;SDS011;63652;51.526;5.080;2023-04-24T10:53:04;0.90;;;0.25;;
75073;SDS011;63652;51.526;5.080;2023-04-24T10:55:44;0.70;;;0.30;;
75073;SDS011;63652;51.526;5.080;2023-04-24T10:58:11;1.10;;;0.45;;
75073;SDS011;63652;51.526;5.080;2023-04-24T11:00:38;5.20;;;0.43;;
75073;SDS011;63652;51.526;5.080;2023-04-24T11:03:05;0.52;;;0.30;;
75073;SDS011;63652;51.526;5.080;2023-04-24T11:08:23;0.28;;;0.15;;
75073;SDS011;63652;51.526;5.080;2023-04-24T11:14:00;4.70;;;0.50;;
75073;SDS011;63652;51.526;5.080;2023-04-24T11:21:40;0.98;;;0.45;;
75073;SDS011;63652;51.526;5.080;2023-04-24T11:26:48;0.32;;;0.13;;
75073;SDS011;63652;51.526;5.080;2023-04-24T11:29:13;2.72;;;0.65;;
75073;SDS011;63652;51.526;5.080;2023-04-24T11:31:40;0.95;;;0.40;;
75073;SDS011;63652;51.526;5.080;2023-04-24T11:34:13;0.35;;;0.20;;
75073;SDS011;63652;51.526;5.080;2023-04-24T11:36:42;0.98;;;0.30;;
75073;SDS011;63652;51.526;5.080;2023-04-24T11:39:11;0.47;;;0.10;;
75073;SDS011;63652;51.526;5.080;2023-04-24T11:41:37;0.43;;;0.20;;
75073;SDS011;63652;51.526;5.080;2023-04-24T11:44:02;0.80;;;0.35;;
75073;SDS011;63652;51.526;5.080;2023-04-24T11:46:29;0.70;;;0.35;;
75073;SDS011;63652;51.526;5.080;2023-04-24T11:48:56;0.43;;;0.30;;
75073;SDS011;63652;51.526;5.080;2023-04-24T11:51:22;2.03;;;0.47;;
75073;SDS011;63652;51.526;5.080;2023-04-24T11:53:50;2.75;;;0.60;;
75073;SDS011;63652;51.526;5.080;2023-04-24T11:56:28;1.48;;;0.70;;
75073;SDS011;63652;51.526;5.080;2023-04-24T11:58:53;8.27;;;0.50;;
75073;SDS011;63652;51.526;5.080;2023-04-24T12:01:21;0.60;;;0.30;;
75073;SDS011;63652;51.526;5.080;2023-04-24T12:03:47;1.15;;;0.35;;
75073;SDS011;63652;51.526;5.080;2023-04-24T12:06:13;0.55;;;0.20;;
75073;SDS011;63652;51.526;5.080;2023-04-24T12:08:39;0.25;;;0.10;;
75073;SDS011;63652;51.526;5.080;2023-04-24T12:11:05;0.35;;;0.22;;
75073;SDS011;63652;51.526;5.080;2023-04-24T12:13:32;0.65;;;0.20;;
75073;SDS011;63652;51.526;5.080;2023-04-24T12:15:58;2.20;;;0.50;;
75073;SDS011;63652;51.526;5.080;2023-04-24T12:18:24;2.58;;;0.52;;
75073;SDS011;63652;51.526;5.080;2023-04-24T12:20:49;0.63;;;0.30;;
75073;SDS011;63652;51.526;5.080;2023-04-24T12:23:15;1.25;;;0.47;;
75073;SDS011;63652;51.526;5.080;2023-04-24T12:25:40;4.88;;;0.30;;
75073;SDS011;63652;51.526;5.080;2023-04-24T12:30:34;0.28;;;0.15;;
75073;SDS011;63652;51.526;5.080;2023-04-24T12:33:03;0.52;;;0.32;;
75073;SDS011;63652;51.526;5.080;2023-04-24T12:35:29;0.63;;;0.17;;
75073;SDS011;63652;51.526;5.080;2023-04-24T12:38:04;2.35;;;0.77;;
75073;SDS011;63652;51.526;5.080;2023-04-24T12:40:40;0.45;;;0.30;;
75073;SDS011;63652;51.526;5.080;2023-04-24T12:43:19;1.40;;;0.60;;
75073;SDS011;63652;51.526;5.080;2023-04-24T12:45:45;0.40;;;0.20;;
75073;SDS011;63652;51.526;5.080;2023-04-24T12:48:13;2.25;;;1.25;;
75073;SDS011;63652;51.526;5.080;2023-04-24T12:50:39;2.80;;;0.85;;
75073;SDS011;63652;51.526;5.080;2023-04-24T12:53:05;0.40;;;0.30;;
75073;SDS011;63652;51.526;5.080;2023-04-24T12:55:34;0.47;;;0.22;;
75073;SDS011;63652;51.526;5.080;2023-04-24T12:57:59;1.90;;;0.75;;
75073;SDS011;63652;51.526;5.080;2023-04-24T13:00:25;1.95;;;0.17;;
75073;SDS011;63652;51.526;5.080;2023-04-24T13:02:50;0.80;;;0.28;;
75073;SDS011;63652;51.526;5.080;2023-04-24T13:05:16;0.68;;;0.35;;
75073;SDS011;63652;51.526;5.080;2023-04-24T13:07:42;3.15;;;0.57;;
75073;SDS011;63652;51.526;5.080;2023-04-24T13:10:07;0.88;;;0.47;;
75073;SDS011;63652;51.526;5.080;2023-04-24T13:12:33;0.82;;;0.40;;
75073;SDS011;63652;51.526;5.080;2023-04-24T13:14:59;2.05;;;0.93;;
75073;SDS011;63652;51.526;5.080;2023-04-24T13:17:25;1.65;;;0.60;;
75073;SDS011;63652;51.526;5.080;2023-04-24T13:19:50;1.92;;;0.77;;
75073;SDS011;63652;51.526;5.080;2023-04-24T13:22:16;0.68;;;0.30;;
75073;SDS011;63652;51.526;5.080;2023-04-24T13:24:43;1.40;;;0.60;;
75073;SDS011;63652;51.526;5.080;2023-04-24T13:27:14;1.20;;;1.00;;
75073;SDS011;63652;51.526;5.080;2023-04-24T13:29:40;2.03;;;0.80;;
75073;SDS011;63652;51.526;5.080;2023-04-24T13:32:05;1.67;;;0.55;;
75073;SDS011;63652;51.526;5.080;2023-04-24T13:34:31;2.67;;;0.95;;
75073;SDS011;63652;51.526;5.080;2023-04-24T13:36:56;0.95;;;0.45;;
75073;SDS011;63652;51.526;5.080;2023-04-24T13:39:23;2.72;;;0.63;;
75073;SDS011;63652;51.526;5.080;2023-04-24T13:41:49;1.13;;;0.50;;
75073;SDS011;63652;51.526;5.080;2023-04-24T13:44:16;4.40;;;0.98;;
75073;SDS011;63652;51.526;5.080;2023-04-24T13:46:42;1.02;;;0.47;;
75073;SDS011;63652;51.526;5.080;2023-04-24T13:49:09;0.65;;;0.35;;
75073;SDS011;63652;51.526;5.080;2023-04-24T13:51:35;5.82;;;0.52;;
75073;SDS011;63652;51.526;5.080;2023-04-24T13:54:00;1.95;;;0.32;;
75073;SDS011;63652;51.526;5.080;2023-04-24T13:56:26;2.15;;;0.57;;
75073;SDS011;63652;51.526;5.080;2023-04-24T13:58:51;1.13;;;0.40;;
75073;SDS011;63652;51.526;5.080;2023-04-24T14:01:16;1.50;;;0.57;;
75073;SDS011;63652;51.526;5.080;2023-04-24T14:03:42;0.73;;;0.45;;
75073;SDS011;63652;51.526;5.080;2023-04-24T14:06:10;3.20;;;0.52;;
75073;SDS011;63652;51.526;5.080;2023-04-24T14:08:35;0.77;;;0.35;;
75073;SDS011;63652;51.526;5.080;2023-04-24T14:11:01;1.88;;;0.82;;
75073;SDS011;63652;51.526;5.080;2023-04-24T14:13:26;0.90;;;0.55;;
75073;SDS011;63652;51.526;5.080;2023-04-24T14:15:52;1.30;;;0.40;;
75073;SDS011;63652;51.526;5.080;2023-04-24T14:18:18;0.98;;;0.40;;
75073;SDS011;63652;51.526;5.080;2023-04-24T14:20:43;1.77;;;0.43;;
75073;SDS011;63652;51.526;5.080;2023-04-24T14:23:09;0.82;;;0.47;;
75073;SDS011;63652;51.526;5.080;2023-04-24T14:25:34;0.93;;;0.65;;
75073;SDS011;63652;51.526;5.080;2023-04-24T14:28:00;3.05;;;0.30;;
75073;SDS011;63652;51.526;5.080;2023-04-24T14:30:25;3.83;;;0.77;;
75073;SDS011;63652;51.526;5.080;2023-04-24T14:32:50;3.92;;;0.75;;
75073;SDS011;63652;51.526;5.080;2023-04-24T14:35:16;4.05;;;0.60;;
75073;SDS011;63652;51.526;5.080;2023-04-24T14:37:41;1.77;;;1.20;;
75073;SDS011;63652;51.526;5.080;2023-04-24T14:40:07;1.85;;;0.60;;
75073;SDS011;63652;51.526;5.080;2023-04-24T14:42:34;0.82;;;0.43;;
75073;SDS011;63652;51.526;5.080;2023-04-24T14:45:00;1.85;;;0.47;;
75073;SDS011;63652;51.526;5.080;2023-04-24T14:47:25;0.45;;;0.25;;
75073;SDS011;63652;51.526;5.080;2023-04-24T14:49:54;0.60;;;0.30;;
75073;SDS011;63652;51.526;5.080;2023-04-24T14:52:19;0.17;;;0.10;;